< Cyclone 199206 1992 Season Cyclone 199208 >
Cyclone 199207 (ESAU)
General InformationTrack Information on Google MapsDetailed Wind InformationList of All Images || ResourceGoogle EarthGE AnimationAtom FeedGeoJSON
Detalied Best Track (Time Zone = UTC)
Year Month Day Hour Lat. Long. Pressure (hPa) Wind (kt) Class Image Chart
1992 2 27 12 -15.5 163.8 975 54 4 Image --
1992 2 27 18 -15.4 163.0 968 54 4 Image --
1992 2 28 00 -15.1 162.0 955 60 4 Image --
1992 2 28 06 -15.1 161.5 940 64 5 Image --
1992 2 28 12 -14.6 160.4 925 70 5 Image --
1992 2 28 18 -14.3 160.1 925 99 5 Image --
1992 2 29 00 -14.0 159.8 925 99 5 Image --
1992 2 29 06 -13.8 159.4 935 99 5 Image --
1992 2 29 12 -13.6 159.2 940 99 5 Image --
1992 2 29 18 -13.4 159.4 940 89 5 Image --
1992 3 1 00 -13.4 159.8 937.5 89 5 Image --
1992 3 1 06 -13.8 160.5 935 89 5 Image --
1992 3 1 12 -14.4 160.9 932.5 89 5 Image --
1992 3 1 18 -14.7 161.2 930 99 5 Image --
1992 3 2 00 -15.1 161.4 930 99 5 Image --
1992 3 2 06 -15.9 162.0 930 99 5 Image --
1992 3 2 12 -16.3 162.5 930 99 5 Image --
1992 3 2 18 -16.7 163.2 930 99 5 Image --
1992 3 3 00 -16.9 163.7 930 99 5 Image --
1992 3 3 06 -17.5 164.1 930 99 5 Image --
1992 3 3 12 -18.0 164.6 930 99 5 Image --
1992 3 3 18 -18.8 165.1 935 97 5 Image --
1992 3 4 00 -19.8 165.4 940 89 5 Image --
1992 3 4 06 -20.3 165.4 945 86 5 Image --
< Cyclone 199206 1992 Season Cyclone 199208 >

Help